Luedenscheid, Germany

5:39 PM CET on December 19, 2014 (GMT +0100)
Andre´s WetterStation | Change Station
CLOSE
Current Station
Personal Weather Station
Location: Luedenscheid, NRW
Elevation: 1387 ft
Nearby Weather Stations

Elev 1387 ft 51.22 °N, 7.64 °E | Updated 17 minutes ago

Scattered Clouds
Scattered Clouds
41.9 °F
Feels Like 36 °F
N
9.1
Wind Variable Wind from West
Gusts 23.2 mph

Today
High -- | Low -- °F
--% Chance of Precip.
Yesterday
High -- | Low -- °F
Precip. -- in
8:30 AM 4:22 PM
Waning Crescent, 7% visible
Pressure 29.92 in
Visibility 6.2 miles
Clouds Few 1500 ft
Scattered Clouds 3500 ft
Windchill 36 °F
Dew Point 39 °F
Humidity 90%
Rainfall 1.50 in
Snow Depth Not available.
UV 0 out of 12
Pollen Not available.
Air Quality Not available.
Flu Activity Not available.
METAR EDLW 191620Z 27009G19KT 9999 FEW015 SCT035 07/03 Q1013

More Conditions Fewer Conditions

Pressure 29.92 in
Visibility 6.2 miles
Clouds Few 1500 ft
Scattered Clouds 3500 ft
Windchill 36 °F
Dew Point 39 °F
Humidity 90%
Rainfall 1.50 in
Snow Depth Not available.
UV 0 out of 12
Pollen Not available.
Air Quality Not available.
Flu Activity Not available.
METAR EDLW 191620Z 27009G19KT 9999 FEW015 SCT035 07/03 Q1013

More Conditions Fewer Conditions

10-Day Weather Forecast

Almanac

Astronomy

Dec. 19, 2014 Rise Set
Actual Time
Civil Twilight
Nautical Twilight
Astronomical Twilight
Moon
Length of Visible Light
Length of Day
Tomorrow will be .
, % of the Moon is Illuminated

Today's Extremes

Country Highs Country Lows

Community

WunderPhotos

Upload Photos

1,779,005 photos uploaded!

WunderBlogs® & News

Nearby

Air Quality

  Air Quality AQ Index Pollutant
Not available.

Snow Depth

Station Depth Elevation

Earthquake Activity

City Distance Mag. Time & Date
Minimum magnitude displayed is 2.5.

Coastal Water Temperatures

Place Temperature

Nearby Weather Stations